createdAt,value
2018-07-18T04:32:55.512Z,992.3
2018-07-18T04:33:15.665Z,992.3
2018-07-18T04:33:35.853Z,992.3
2018-07-18T04:33:56.000Z,992.3
2018-07-18T04:34:16.149Z,992.4
2018-07-18T04:34:36.336Z,992.4
2018-07-18T04:34:56.486Z,992.4
2018-07-18T04:35:16.653Z,992.3
2018-07-18T04:35:36.802Z,992.4
2018-07-18T04:35:56.970Z,992.3
2018-07-18T04:36:17.165Z,992.4
2018-07-18T04:36:37.296Z,992.4
2018-07-18T04:36:57.443Z,992.4
2018-07-18T04:37:17.603Z,992.4
2018-07-18T04:37:37.779Z,992.4
2018-07-18T04:37:57.924Z,992.4
2018-07-18T04:38:18.032Z,992.4
2018-07-18T04:38:38.180Z,992.4
2018-07-18T04:38:58.343Z,992.4
2018-07-18T04:39:18.475Z,992.4
2018-07-18T04:39:38.623Z,992.4
2018-07-18T04:39:58.774Z,992.5
2018-07-18T04:40:18.932Z,992.4
2018-07-18T04:40:39.091Z,992.4
2018-07-18T04:40:59.325Z,992.5
2018-07-18T04:41:19.401Z,992.5
2018-07-18T04:41:39.550Z,992.5
2018-07-18T04:41:59.720Z,992.5
2018-07-18T04:42:19.880Z,992.5
2018-07-18T04:42:40.052Z,992.5
2018-07-18T04:43:00.207Z,992.5
2018-07-18T04:43:20.360Z,992.5
2018-07-18T04:43:40.521Z,992.5
2018-07-18T04:44:00.697Z,992.6
2018-07-18T04:44:20.852Z,992.5
2018-07-18T04:44:41.001Z,992.6
2018-07-18T04:45:01.152Z,992.6
2018-07-18T04:45:21.285Z,992.6
2018-07-18T04:45:41.438Z,992.5
2018-07-18T04:46:01.591Z,992.5
2018-07-18T04:46:21.745Z,992.5
2018-07-18T04:46:41.913Z,992.5
2018-07-18T04:47:02.046Z,992.6
2018-07-18T04:47:22.194Z,992.5
2018-07-18T04:47:42.365Z,992.6
2018-07-18T04:48:02.559Z,992.6
2018-07-18T04:48:22.667Z,992.5
2018-07-18T04:48:42.819Z,992.6
2018-07-18T04:49:02.970Z,992.5
2018-07-18T04:49:23.134Z,992.6
2018-07-18T04:49:43.338Z,992.6
2018-07-18T04:50:03.477Z,992.6
2018-07-18T04:50:23.634Z,992.6
2018-07-18T04:50:43.782Z,992.6
2018-07-18T04:51:03.949Z,992.6
2018-07-18T04:51:24.094Z,992.6
2018-07-18T04:51:44.238Z,992.6
2018-07-18T04:52:04.383Z,992.6
2018-07-18T04:52:24.565Z,992.7
2018-07-18T04:52:44.700Z,992.6
2018-07-18T04:53:04.876Z,992.6
2018-07-18T04:53:25.019Z,992.6
2018-07-18T04:53:45.169Z,992.6
2018-07-18T04:54:05.308Z,992.6
2018-07-18T04:54:25.478Z,992.6
2018-07-18T04:54:45.605Z,992.6
2018-07-18T04:55:05.776Z,992.7
2018-07-18T04:55:25.933Z,992.6
2018-07-18T04:55:46.218Z,992.7
2018-07-18T04:56:06.390Z,992.6
2018-07-18T04:56:26.505Z,992.6
2018-07-18T04:56:46.661Z,992.6
2018-07-18T04:57:06.856Z,992.6
2018-07-18T04:57:26.979Z,992.6
2018-07-18T04:57:47.199Z,992.6
2018-07-18T04:58:07.355Z,992.6
2018-07-18T04:58:27.488Z,992.7
2018-07-18T04:58:47.633Z,992.7
2018-07-18T04:59:07.790Z,992.7
2018-07-18T04:59:28.031Z,992.7
2018-07-18T04:59:48.175Z,992.7
2018-07-18T05:00:08.360Z,992.7
2018-07-18T05:00:28.547Z,992.7
2018-07-18T05:00:48.708Z,992.7
2018-07-18T05:01:08.880Z,992.7
2018-07-18T05:01:29.041Z,992.7
2018-07-18T05:01:49.283Z,992.7
2018-07-18T05:02:09.368Z,992.7
2018-07-18T05:02:29.553Z,992.7
2018-07-18T05:02:49.715Z,992.7
2018-07-18T05:03:09.875Z,992.7
2018-07-18T05:03:30.027Z,992.7
2018-07-18T05:03:50.198Z,992.7
2018-07-18T05:04:10.359Z,992.7
2018-07-18T05:04:30.521Z,992.7
2018-07-18T05:04:50.679Z,992.7
2018-07-18T05:05:10.851Z,992.7
2018-07-18T05:05:30.984Z,992.7
2018-07-18T05:05:51.148Z,992.7
2018-07-18T05:06:11.295Z,992.7
2018-07-18T05:06:31.505Z,992.7
2018-07-18T05:06:51.659Z,992.7
2018-07-18T05:07:11.820Z,992.7
2018-07-18T05:07:31.970Z,992.7
2018-07-18T05:07:52.124Z,992.7
2018-07-18T05:08:12.286Z,992.7
2018-07-18T05:08:32.448Z,992.8
2018-07-18T05:08:52.600Z,992.8
2018-07-18T05:09:12.764Z,992.8
2018-07-18T05:09:32.904Z,992.8
2018-07-18T05:09:53.236Z,992.8
2018-07-18T05:10:13.213Z,992.8
2018-07-18T05:10:33.380Z,992.8
2018-07-18T05:10:53.531Z,992.9
2018-07-18T05:11:13.707Z,992.8
2018-07-18T05:11:33.872Z,992.8
2018-07-18T05:11:54.035Z,992.9
2018-07-18T05:12:14.181Z,992.8
2018-07-18T05:12:34.354Z,992.8
2018-07-18T05:12:54.504Z,992.9
2018-07-18T05:13:14.654Z,992.9
2018-07-18T05:13:34.827Z,992.9
2018-07-18T05:13:54.985Z,992.9
2018-07-18T05:14:15.143Z,992.9
2018-07-18T05:14:35.315Z,992.9
2018-07-18T05:14:55.476Z,992.9
2018-07-18T05:15:15.675Z,992.9
2018-07-18T05:15:35.837Z,992.9
2018-07-18T05:15:55.943Z,992.9
2018-07-18T05:16:16.104Z,992.9
2018-07-18T05:16:36.263Z,992.8
2018-07-18T05:16:56.407Z,992.9
2018-07-18T05:17:16.571Z,992.9
2018-07-18T05:17:36.723Z,992.9
2018-07-18T05:17:56.872Z,992.9
2018-07-18T05:18:17.030Z,992.9
2018-07-18T05:18:37.166Z,992.9
2018-07-18T05:18:57.306Z,992.9
2018-07-18T05:19:17.453Z,992.9
2018-07-18T05:19:37.625Z,992.9
2018-07-18T05:19:57.775Z,993
2018-07-18T05:20:17.922Z,993
2018-07-18T05:20:38.101Z,992.9
2018-07-18T05:20:58.224Z,993
2018-07-18T05:21:18.393Z,993
2018-07-18T05:21:38.556Z,993
2018-07-18T05:21:58.850Z,992.9
2018-07-18T05:22:18.948Z,993
2018-07-18T05:22:39.108Z,993
2018-07-18T05:22:59.280Z,993
2018-07-18T05:23:19.481Z,993
2018-07-18T05:23:39.646Z,993
2018-07-18T05:23:59.807Z,993
2018-07-18T05:24:19.954Z,993.1
2018-07-18T05:24:40.108Z,993
2018-07-18T05:25:00.268Z,993
2018-07-18T05:25:20.442Z,993
2018-07-18T05:25:40.596Z,993
2018-07-18T05:26:00.771Z,993
2018-07-18T05:26:20.956Z,993
2018-07-18T05:26:41.104Z,993
2018-07-18T05:27:01.273Z,993
2018-07-18T05:27:21.422Z,993.1
2018-07-18T05:27:41.587Z,993.1
2018-07-18T05:28:01.757Z,993
2018-07-18T05:28:21.927Z,993
2018-07-18T05:28:42.095Z,993
2018-07-18T05:29:02.259Z,993
2018-07-18T05:29:22.408Z,993.1
2018-07-18T05:29:42.571Z,993.1
2018-07-18T05:30:02.868Z,993.1
2018-07-18T05:30:22.924Z,993
2018-07-18T05:30:43.079Z,993
2018-07-18T05:31:03.253Z,993
2018-07-18T05:31:23.447Z,993
2018-07-18T05:31:43.574Z,993.1
2018-07-18T05:32:03.732Z,993
2018-07-18T05:32:23.867Z,993
2018-07-18T05:32:44.001Z,993
2018-07-18T05:33:04.162Z,993
2018-07-18T05:33:24.303Z,993.1
2018-07-18T05:33:44.456Z,993.1
2018-07-18T05:34:04.635Z,993
2018-07-18T05:34:24.783Z,993.1
2018-07-18T05:34:44.932Z,993
2018-07-18T05:35:05.083Z,993.1
2018-07-18T05:35:25.222Z,993.1
2018-07-18T05:35:45.411Z,993.1
2018-07-18T05:36:05.543Z,993
2018-07-18T05:36:25.718Z,993.1
2018-07-18T05:36:45.867Z,993.1
2018-07-18T05:37:06.000Z,993
2018-07-18T05:37:26.158Z,993
2018-07-18T05:37:46.306Z,993.1
2018-07-18T05:38:06.487Z,993.1
2018-07-18T05:38:26.650Z,993.1
2018-07-18T05:38:46.823Z,993.1
2018-07-18T05:39:06.971Z,993.1
2018-07-18T05:39:27.127Z,993.1
2018-07-18T05:39:47.287Z,993.1
2018-07-18T05:40:07.443Z,993.1
2018-07-18T05:40:27.619Z,993.1
2018-07-18T05:40:47.772Z,993.1
2018-07-18T05:41:07.907Z,993.1
2018-07-18T05:41:28.134Z,993.1
2018-07-18T05:41:48.379Z,993.1
2018-07-18T05:42:08.540Z,993.1
2018-07-18T05:42:28.672Z,993.1
2018-07-18T05:42:48.803Z,993.1
2018-07-18T05:43:09.009Z,993.1
2018-07-18T05:43:29.163Z,993.1
2018-07-18T05:43:49.427Z,993.1
2018-07-18T05:44:09.554Z,993.2
2018-07-18T05:44:29.731Z,993.2
2018-07-18T05:44:49.888Z,993.2
2018-07-18T05:45:10.072Z,993.2
2018-07-18T05:45:30.213Z,993.1
2018-07-18T05:45:50.379Z,993.2
2018-07-18T05:46:10.549Z,993.2
2018-07-18T05:46:30.701Z,993.2
2018-07-18T05:46:50.866Z,993.2
2018-07-18T05:47:11.021Z,993.2
2018-07-18T05:47:31.212Z,993.2
2018-07-18T05:47:51.375Z,993.2
2018-07-18T05:48:11.569Z,993.2
2018-07-18T05:48:31.727Z,993.2
2018-07-18T05:48:51.908Z,993.2
2018-07-18T05:49:12.083Z,993.2
2018-07-18T05:49:32.436Z,993.3
2018-07-18T05:49:52.430Z,993.2
2018-07-18T05:50:12.628Z,993.3
2018-07-18T05:50:32.777Z,993.3
2018-07-18T05:50:52.940Z,993.3
2018-07-18T05:51:13.119Z,993.3
2018-07-18T05:51:33.276Z,993.3
2018-07-18T05:51:53.413Z,993.3
2018-07-18T05:52:13.603Z,993.4
2018-07-18T05:52:33.764Z,993.4
2018-07-18T05:52:53.929Z,993.4
2018-07-18T05:53:14.081Z,993.4
2018-07-18T05:53:34.230Z,993.3
2018-07-18T05:53:54.394Z,993.4
2018-07-18T05:54:14.569Z,993.4
2018-07-18T05:54:34.702Z,993.4
2018-07-18T05:54:54.846Z,993.4
2018-07-18T05:55:14.989Z,993.5
2018-07-18T05:55:35.127Z,993.4
2018-07-18T05:55:55.289Z,993.5
2018-07-18T05:56:15.422Z,993.5
2018-07-18T05:56:35.640Z,993.4
2018-07-18T05:56:55.811Z,993.5
2018-07-18T05:57:15.953Z,993.4
2018-07-18T05:57:36.122Z,993.5
2018-07-18T05:57:56.363Z,993.5
2018-07-18T05:58:16.532Z,993.5
2018-07-18T05:58:36.697Z,993.5
2018-07-18T05:58:56.858Z,993.5
2018-07-18T05:59:17.035Z,993.5
2018-07-18T05:59:37.195Z,993.5
2018-07-18T05:59:57.354Z,993.5
2018-07-18T06:00:17.522Z,993.5
2018-07-18T06:00:37.700Z,993.5
2018-07-18T06:00:57.817Z,993.5
2018-07-18T06:01:17.974Z,993.5
2018-07-18T06:01:38.181Z,993.5
2018-07-18T06:01:58.358Z,993.5
2018-07-18T06:02:18.519Z,993.5
2018-07-18T06:02:38.694Z,993.5
2018-07-18T06:02:58.859Z,993.4
2018-07-18T06:03:19.011Z,993.5
2018-07-18T06:03:39.173Z,993.5
2018-07-18T06:03:59.357Z,993.5
2018-07-18T06:04:19.485Z,993.5
2018-07-18T06:04:39.646Z,993.5
2018-07-18T06:04:59.797Z,993.5
2018-07-18T06:05:19.946Z,993.5
2018-07-18T06:05:40.120Z,993.5
2018-07-18T06:06:00.281Z,993.5
2018-07-18T06:06:20.442Z,993.5
2018-07-18T06:06:40.610Z,993.5
2018-07-18T06:07:00.756Z,993.5
2018-07-18T06:07:20.920Z,993.5
2018-07-18T06:07:41.107Z,993.5
2018-07-18T06:08:01.261Z,993.5
2018-07-18T06:08:21.409Z,993.5
2018-07-18T06:08:41.585Z,993.5
2018-07-18T06:09:01.734Z,993.6
2018-07-18T06:09:21.924Z,993.5
2018-07-18T06:09:42.114Z,993.5
2018-07-18T06:10:02.291Z,993.5
2018-07-18T06:10:22.459Z,993.5
2018-07-18T06:10:42.607Z,993.6
2018-07-18T06:11:02.776Z,993.5
2018-07-18T06:11:22.921Z,993.6
2018-07-18T06:11:43.101Z,993.5
2018-07-18T06:12:03.256Z,993.6
2018-07-18T06:12:23.437Z,993.6
2018-07-18T06:12:43.615Z,993.6
2018-07-18T06:13:03.753Z,993.6
2018-07-18T06:13:23.913Z,993.5
2018-07-18T06:13:44.049Z,993.6
2018-07-18T06:14:04.199Z,993.6
2018-07-18T06:14:24.376Z,993.6
2018-07-18T06:14:44.533Z,993.6
2018-07-18T06:15:04.698Z,993.6
2018-07-18T06:15:24.826Z,993.6
2018-07-18T06:15:44.946Z,993.6
2018-07-18T06:16:05.104Z,993.6
2018-07-18T06:16:25.272Z,993.6
2018-07-18T06:16:45.445Z,993.6
2018-07-18T06:17:05.618Z,993.6
2018-07-18T06:17:25.826Z,993.6
2018-07-18T06:17:46.162Z,993.6
2018-07-18T06:18:06.307Z,993.6
2018-07-18T06:18:26.531Z,993.7
2018-07-18T06:18:46.699Z,993.6
2018-07-18T06:19:06.878Z,993.6
2018-07-18T06:19:27.070Z,993.6
2018-07-18T06:19:47.442Z,993.6
2018-07-18T06:20:07.616Z,993.6
2018-07-18T06:20:27.795Z,993.6
2018-07-18T06:20:47.960Z,993.6
2018-07-18T06:21:08.255Z,993.6
2018-07-18T06:21:28.422Z,993.6
2018-07-18T06:21:48.580Z,993.7
2018-07-18T06:22:08.757Z,993.7
2018-07-18T06:22:28.895Z,993.7
2018-07-18T06:22:49.090Z,993.7
2018-07-18T06:23:09.285Z,993.6
2018-07-18T06:23:29.439Z,993.7
2018-07-18T06:23:49.597Z,993.7
2018-07-18T06:24:09.736Z,993.7
2018-07-18T06:24:29.872Z,993.7
2018-07-18T06:24:50.045Z,993.7
2018-07-18T06:25:10.232Z,993.7
2018-07-18T06:25:30.402Z,993.7
2018-07-18T06:25:50.567Z,993.7
2018-07-18T06:26:10.752Z,993.6
2018-07-18T06:26:32.192Z,993.8
2018-07-18T06:26:52.364Z,993.7
2018-07-18T06:27:12.523Z,993.7
2018-07-18T06:27:32.663Z,993.7
2018-07-18T06:27:52.820Z,993.7
2018-07-18T06:28:12.974Z,993.7
2018-07-18T06:28:33.188Z,993.8
2018-07-18T06:28:53.308Z,993.7
2018-07-18T06:29:13.466Z,993.8
2018-07-18T06:29:33.630Z,993.8
2018-07-18T06:29:54.397Z,993.8
2018-07-18T06:30:14.560Z,993.7
2018-07-18T06:30:34.714Z,993.8
2018-07-18T06:30:54.884Z,993.8
2018-07-18T06:31:15.057Z,993.8
2018-07-18T06:31:35.243Z,993.8
2018-07-18T06:31:55.416Z,993.8
2018-07-18T06:32:15.584Z,993.8
2018-07-18T06:32:35.743Z,993.8
2018-07-18T06:32:55.903Z,993.8
2018-07-18T06:33:16.061Z,993.8
2018-07-18T06:33:36.216Z,993.8
2018-07-18T06:33:56.422Z,993.7
2018-07-18T06:34:16.581Z,993.8
2018-07-18T06:34:36.753Z,993.8
2018-07-18T06:34:56.906Z,993.8
2018-07-18T06:35:17.063Z,993.8
2018-07-18T06:35:37.236Z,993.8
2018-07-18T06:35:57.387Z,993.8
2018-07-18T06:36:17.570Z,993.8
2018-07-18T06:36:37.750Z,993.8
2018-07-18T06:36:57.892Z,993.8
2018-07-18T06:37:18.618Z,993.8
2018-07-18T06:37:38.776Z,993.8
2018-07-18T06:37:58.945Z,993.7
2018-07-18T06:38:19.098Z,993.8
2018-07-18T06:38:39.253Z,993.8
2018-07-18T06:38:59.419Z,993.8
2018-07-18T06:39:19.583Z,993.8
2018-07-18T06:39:39.739Z,993.8
2018-07-18T06:39:59.889Z,993.8
2018-07-18T06:40:20.132Z,993.8
2018-07-18T06:40:40.296Z,993.8
2018-07-18T06:41:00.451Z,993.8
2018-07-18T06:41:21.228Z,993.8
2018-07-18T06:41:41.437Z,993.8
2018-07-18T06:42:01.607Z,993.8
2018-07-18T06:42:21.781Z,993.8
2018-07-18T06:42:41.957Z,993.8
2018-07-18T06:43:02.140Z,993.8
2018-07-18T06:43:22.348Z,993.8
2018-07-18T06:43:42.626Z,993.8
2018-07-18T06:44:03.922Z,993.8
2018-07-18T06:44:24.116Z,993.8
2018-07-18T06:44:44.318Z,993.8
2018-07-18T06:45:04.499Z,993.8
2018-07-18T06:45:24.658Z,993.9
2018-07-18T06:45:44.815Z,993.9
2018-07-18T06:46:04.971Z,993.8
2018-07-18T06:46:25.212Z,993.9
2018-07-18T06:46:45.336Z,993.8
2018-07-18T06:47:05.498Z,993.8
2018-07-18T06:47:25.661Z,993.8
2018-07-18T06:47:45.831Z,993.8
2018-07-18T06:48:05.988Z,993.9
2018-07-18T06:48:26.638Z,993.9
2018-07-18T06:48:46.854Z,993.9
2018-07-18T06:49:06.984Z,993.9
2018-07-18T06:49:27.210Z,993.8
2018-07-18T06:49:47.376Z,993.9
2018-07-18T06:50:08.144Z,993.9
2018-07-18T06:50:28.401Z,993.9
2018-07-18T06:50:48.584Z,993.9
2018-07-18T06:51:08.807Z,993.9
2018-07-18T06:51:29.482Z,993.9
2018-07-18T06:51:49.630Z,993.9
2018-07-18T06:52:09.875Z,993.9
2018-07-18T06:52:30.043Z,994
2018-07-18T06:52:50.212Z,993.9
2018-07-18T06:53:10.951Z,993.9
2018-07-18T06:53:31.126Z,993.9
2018-07-18T06:53:51.293Z,993.9
2018-07-18T06:54:11.455Z,993.9
2018-07-18T06:54:31.727Z,994
2018-07-18T06:54:51.764Z,993.9
2018-07-18T06:55:11.937Z,994
2018-07-18T06:55:32.092Z,993.9
2018-07-18T06:55:52.273Z,994
2018-07-18T06:56:12.448Z,993.9
2018-07-18T06:56:32.676Z,993.9
2018-07-18T06:56:52.883Z,993.9
2018-07-18T06:57:13.064Z,994
2018-07-18T06:57:33.227Z,994
2018-07-18T06:57:53.369Z,993.9
2018-07-18T06:58:13.626Z,993.9
2018-07-18T06:58:33.796Z,993.9
2018-07-18T06:58:53.990Z,993.9
2018-07-18T06:59:14.772Z,993.9
2018-07-18T06:59:34.993Z,993.9
2018-07-18T06:59:55.157Z,993.9
2018-07-18T07:00:15.311Z,993.9
2018-07-18T07:00:35.465Z,993.9
2018-07-18T07:00:55.707Z,993.9
2018-07-18T07:01:15.822Z,993.9
2018-07-18T07:01:36.040Z,994
2018-07-18T07:01:56.194Z,993.9
2018-07-18T07:02:16.391Z,993.9
2018-07-18T07:02:36.570Z,993.9
2018-07-18T07:02:56.715Z,993.9
2018-07-18T07:03:17.368Z,994
2018-07-18T07:03:37.546Z,994
2018-07-18T07:03:57.712Z,993.9
2018-07-18T07:04:17.929Z,993.9
2018-07-18T07:04:38.607Z,993.9
2018-07-18T07:04:58.767Z,994
2018-07-18T07:05:18.962Z,994
2018-07-18T07:05:39.119Z,993.9
2018-07-18T07:05:59.279Z,993.9
2018-07-18T07:06:19.430Z,994
2018-07-18T07:06:39.625Z,993.9
2018-07-18T07:06:59.803Z,994
2018-07-18T07:07:19.958Z,994
2018-07-18T07:07:40.110Z,993.9
2018-07-18T07:08:00.332Z,994
2018-07-18T07:08:20.430Z,993.9
2018-07-18T07:08:40.620Z,994
2018-07-18T07:09:00.879Z,993.9
2018-07-18T07:09:21.084Z,994
2018-07-18T07:09:41.245Z,994
2018-07-18T07:10:01.427Z,993.9
2018-07-18T07:10:21.659Z,994
2018-07-18T07:10:41.831Z,994
2018-07-18T07:11:02.021Z,993.9
2018-07-18T07:11:22.134Z,994
2018-07-18T07:11:42.339Z,994
2018-07-18T07:12:02.584Z,994
2018-07-18T07:12:22.760Z,994
2018-07-18T07:12:42.933Z,994
2018-07-18T07:13:03.117Z,994
2018-07-18T07:13:23.270Z,993.9
2018-07-18T07:13:43.433Z,994
2018-07-18T07:14:03.575Z,994
2018-07-18T07:14:23.718Z,994
2018-07-18T07:14:43.874Z,994
2018-07-18T07:15:04.032Z,994
2018-07-18T07:15:24.228Z,994
2018-07-18T07:15:44.429Z,994
2018-07-18T07:16:05.067Z,994
2018-07-18T07:16:25.288Z,994
2018-07-18T07:16:45.459Z,994
2018-07-18T07:17:05.631Z,994
2018-07-18T07:17:25.831Z,994
2018-07-18T07:17:46.053Z,994
2018-07-18T07:18:06.279Z,994
2018-07-18T07:18:26.420Z,994
2018-07-18T07:18:47.778Z,994
2018-07-18T07:19:07.933Z,994
2018-07-18T07:19:28.119Z,994
2018-07-18T07:19:48.289Z,994
2018-07-18T07:20:08.548Z,994.1
2018-07-18T07:20:28.785Z,994
2018-07-18T07:20:48.959Z,994
2018-07-18T07:21:09.113Z,994
2018-07-18T07:21:29.269Z,994
2018-07-18T07:21:50.069Z,994
2018-07-18T07:22:10.317Z,994
2018-07-18T07:22:30.509Z,994
2018-07-18T07:22:50.708Z,994
2018-07-18T07:23:11.341Z,994
2018-07-18T07:23:31.492Z,994
2018-07-18T07:23:51.777Z,994
2018-07-18T07:24:11.952Z,994
2018-07-18T07:24:32.115Z,994
2018-07-18T07:24:52.274Z,994
2018-07-18T07:25:12.435Z,994
2018-07-18T07:25:32.597Z,994
2018-07-18T07:25:52.785Z,994
2018-07-18T07:26:13.017Z,994
2018-07-18T07:26:33.194Z,994.1
2018-07-18T07:26:53.356Z,994.1
2018-07-18T07:27:13.513Z,994.1
2018-07-18T07:27:33.675Z,994
2018-07-18T07:27:54.057Z,994.1
2018-07-18T07:28:14.233Z,994.1
2018-07-18T07:28:34.432Z,994.1
2018-07-18T07:28:54.750Z,994
2018-07-18T07:29:14.906Z,994.1
2018-07-18T07:29:35.067Z,994.1
2018-07-18T07:29:55.204Z,994.1
2018-07-18T07:30:15.361Z,994.1
2018-07-18T07:30:35.612Z,994
2018-07-18T07:30:55.822Z,994.1
2018-07-18T07:31:15.968Z,994.1
2018-07-18T07:31:36.145Z,994.1
2018-07-18T07:31:56.297Z,994.1
2018-07-18T07:32:16.514Z,994.1
2018-07-18T07:32:36.680Z,994.1
2018-07-18T07:32:56.829Z,994.1
2018-07-18T07:33:16.981Z,994.1
2018-07-18T07:33:37.168Z,994.1
2018-07-18T07:33:57.384Z,994.1
2018-07-18T07:34:17.548Z,994.1
2018-07-18T07:34:37.729Z,994.1
2018-07-18T07:34:58.839Z,994.1
2018-07-18T07:35:19.075Z,994.1
2018-07-18T07:35:39.255Z,994.1
2018-07-18T07:35:59.465Z,994.1
2018-07-18T07:36:19.628Z,994.1
2018-07-18T07:36:39.895Z,994.1
2018-07-18T07:37:00.120Z,994.1
2018-07-18T07:37:20.267Z,994.1
2018-07-18T07:37:40.444Z,994.1
2018-07-18T07:38:01.762Z,994.1
2018-07-18T07:38:21.914Z,994.1
2018-07-18T07:38:42.075Z,994.1
2018-07-18T07:39:02.253Z,994
2018-07-18T07:39:22.419Z,994.1
2018-07-18T07:39:42.570Z,994
2018-07-18T07:40:02.724Z,994.1
2018-07-18T07:40:22.895Z,994.1
2018-07-18T07:40:43.048Z,994.1
2018-07-18T07:41:03.344Z,994.1
2018-07-18T07:41:23.854Z,994.1
2018-07-18T07:41:43.881Z,994.1
2018-07-18T07:42:04.060Z,994.1
2018-07-18T07:42:24.224Z,994.1
2018-07-18T07:42:44.385Z,994.1
2018-07-18T07:43:04.564Z,994.1
2018-07-18T07:43:24.730Z,994.1
2018-07-18T07:43:44.896Z,994.1
2018-07-18T07:44:05.167Z,994.1
2018-07-18T07:44:25.370Z,994.1
2018-07-18T07:44:45.597Z,994.1
2018-07-18T07:45:05.711Z,994
2018-07-18T07:45:25.890Z,994.1
2018-07-18T07:45:46.055Z,994.1
2018-07-18T07:46:06.285Z,994.1
2018-07-18T07:46:26.427Z,994.1
2018-07-18T07:46:46.584Z,994.1
2018-07-18T07:47:06.753Z,994.1
2018-07-18T07:47:27.013Z,994.1
2018-07-18T07:47:47.178Z,994.1
2018-07-18T07:48:07.343Z,994.1
2018-07-18T07:48:27.506Z,994.1
2018-07-18T07:48:47.667Z,994.1
2018-07-18T07:49:07.871Z,994.1
2018-07-18T07:49:28.088Z,994.1
2018-07-18T07:49:48.220Z,994.1
2018-07-18T07:50:08.382Z,994.1
2018-07-18T07:50:28.543Z,994.1
2018-07-18T07:50:48.708Z,994.1
2018-07-18T07:51:08.930Z,994.1
2018-07-18T07:51:29.090Z,994.1
2018-07-18T07:51:49.251Z,994.1
2018-07-18T07:52:09.417Z,994.1
2018-07-18T07:52:29.605Z,994.1
2018-07-18T07:52:49.713Z,994.2
2018-07-18T07:53:09.869Z,994.2
2018-07-18T07:53:30.022Z,994.2
2018-07-18T07:53:50.266Z,994.1
2018-07-18T07:54:10.495Z,994.1
2018-07-18T07:54:30.656Z,994.2
2018-07-18T07:54:50.808Z,994.1
2018-07-18T07:55:10.971Z,994.1
2018-07-18T07:55:31.136Z,994.1
2018-07-18T07:55:51.290Z,994.1
2018-07-18T07:56:11.441Z,994.1
2018-07-18T07:56:31.607Z,994.1
2018-07-18T07:56:51.768Z,994.1
2018-07-18T07:57:11.946Z,994.1
2018-07-18T07:57:32.105Z,994.1
2018-07-18T07:57:52.302Z,994.1
2018-07-18T07:58:12.422Z,994.1
2018-07-18T07:58:32.593Z,994.1
2018-07-18T07:58:52.749Z,994.1
2018-07-18T07:59:12.907Z,994.1
2018-07-18T07:59:33.069Z,994.1
2018-07-18T07:59:53.222Z,994.2
2018-07-18T08:00:13.406Z,994.1
2018-07-18T08:00:33.655Z,994.1
2018-07-18T08:00:53.780Z,994.1
2018-07-18T08:01:13.953Z,994.2
2018-07-18T08:01:34.087Z,994.1
2018-07-18T08:01:54.237Z,994.2
2018-07-18T08:02:14.922Z,994.2
2018-07-18T08:02:35.080Z,994.2
2018-07-18T08:02:55.231Z,994.1
2018-07-18T08:03:15.786Z,994.2
2018-07-18T08:03:35.950Z,994.2
2018-07-18T08:03:56.740Z,994.2
2018-07-18T08:04:16.924Z,994.2
2018-07-18T08:04:37.119Z,994.1
2018-07-18T08:04:57.273Z,994.1
2018-07-18T08:05:17.458Z,994.2
2018-07-18T08:05:37.615Z,994.2
2018-07-18T08:05:58.000Z,994.2
2018-07-18T08:06:18.179Z,994.2
2018-07-18T08:06:38.336Z,994.1
2018-07-18T08:06:58.493Z,994.1
2018-07-18T08:07:18.636Z,994.1
2018-07-18T08:07:38.806Z,994.2
2018-07-18T08:07:59.002Z,994.2
2018-07-18T08:08:19.164Z,994.2
2018-07-18T08:08:39.334Z,994.1
2018-07-18T08:08:59.485Z,994.1
2018-07-18T08:09:19.661Z,994.1
2018-07-18T08:09:40.830Z,994.1
2018-07-18T08:10:01.005Z,994.2
2018-07-18T08:10:21.173Z,994.2
2018-07-18T08:10:41.340Z,994.2
2018-07-18T08:11:01.541Z,994.2
2018-07-18T08:11:21.680Z,994.2
2018-07-18T08:11:41.823Z,994.2
2018-07-18T08:12:02.006Z,994.1
2018-07-18T08:12:22.737Z,994.1
2018-07-18T08:12:42.908Z,994.2
2018-07-18T08:13:03.073Z,994.2
2018-07-18T08:13:23.350Z,994.2
2018-07-18T08:13:43.487Z,994.2
2018-07-18T08:14:03.683Z,994.1
2018-07-18T08:14:23.858Z,994.2
2018-07-18T08:14:44.033Z,994.2
2018-07-18T08:15:04.289Z,994.2
2018-07-18T08:15:25.006Z,994.2
2018-07-18T08:15:45.227Z,994.2
2018-07-18T08:16:05.412Z,994.2
2018-07-18T08:16:25.560Z,994.1
2018-07-18T08:16:46.103Z,994.1
2018-07-18T08:17:06.338Z,994.2
2018-07-18T08:17:26.499Z,994.1
2018-07-18T08:17:46.701Z,994.2
2018-07-18T08:18:06.856Z,994.2
2018-07-18T08:18:27.018Z,994.1
2018-07-18T08:18:47.195Z,994.2
2018-07-18T08:19:07.480Z,994.1
2018-07-18T08:19:27.656Z,994.1
2018-07-18T08:19:48.140Z,994.1
2018-07-18T08:20:08.294Z,994.1
2018-07-18T08:20:28.503Z,994.2
2018-07-18T08:20:48.667Z,994.2
2018-07-18T08:21:08.835Z,994.1
2018-07-18T08:21:28.977Z,994.1
2018-07-18T08:21:49.152Z,994.1
2018-07-18T08:22:09.323Z,994.2
2018-07-18T08:22:29.463Z,994.1
2018-07-18T08:22:50.309Z,994.2
2018-07-18T08:23:10.489Z,994.1
2018-07-18T08:23:30.637Z,994.2
2018-07-18T08:23:50.791Z,994.1
2018-07-18T08:24:10.947Z,994.2
2018-07-18T08:24:31.147Z,994.2
2018-07-18T08:24:51.293Z,994.2
2018-07-18T08:25:11.434Z,994.2
2018-07-18T08:25:32.027Z,994.2
2018-07-18T08:25:52.196Z,994.2
2018-07-18T08:26:12.345Z,994.2
2018-07-18T08:26:32.557Z,994.2
2018-07-18T08:26:53.380Z,994.2
2018-07-18T08:27:13.551Z,994.3
2018-07-18T08:27:33.705Z,994.3
2018-07-18T08:27:53.860Z,994.3
2018-07-18T08:28:14.025Z,994.2
2018-07-18T08:28:34.184Z,994.2
2018-07-18T08:28:54.363Z,994.2
2018-07-18T08:29:14.523Z,994.2
2018-07-18T08:29:34.701Z,994.2
2018-07-18T08:29:54.860Z,994.2
2018-07-18T08:30:15.030Z,994.3
2018-07-18T08:30:35.227Z,994.2
2018-07-18T08:30:55.927Z,994.2
2018-07-18T08:31:16.111Z,994.2
2018-07-18T08:31:36.250Z,994.2
2018-07-18T08:31:56.454Z,994.2
2018-07-18T08:32:16.967Z,994.2
2018-07-18T08:32:37.100Z,994.2
2018-07-18T08:32:57.259Z,994.2
2018-07-18T08:33:17.411Z,994.2
2018-07-18T08:33:37.564Z,994.2
2018-07-18T08:33:57.732Z,994.2
2018-07-18T08:34:17.884Z,994.2
2018-07-18T08:34:38.059Z,994.2
2018-07-18T08:34:58.217Z,994.2
2018-07-18T08:35:18.365Z,994.2
2018-07-18T08:35:38.552Z,994.2
2018-07-18T08:35:58.710Z,994.2
2018-07-18T08:36:18.866Z,994.2
2018-07-18T08:36:39.031Z,994.2
2018-07-18T08:36:59.213Z,994.2
2018-07-18T08:37:19.415Z,994.2
2018-07-18T08:37:39.573Z,994.2
2018-07-18T08:37:59.741Z,994.2
2018-07-18T08:38:19.875Z,994.2
2018-07-18T08:38:40.053Z,994.2
2018-07-18T08:39:00.202Z,994.2
2018-07-18T08:39:20.774Z,994.2
2018-07-18T08:39:40.945Z,994.2
2018-07-18T08:40:01.180Z,994.2
2018-07-18T08:40:21.255Z,994.2
2018-07-18T08:40:42.085Z,994.2
2018-07-18T08:41:02.448Z,994.2
2018-07-18T08:41:23.058Z,994.2
2018-07-18T08:41:43.203Z,994.2
2018-07-18T08:42:03.362Z,994.2
2018-07-18T08:42:23.520Z,994.1
2018-07-18T08:42:43.671Z,994.1
2018-07-18T08:43:03.842Z,994.2
2018-07-18T08:43:24.035Z,994.2
2018-07-18T08:43:44.181Z,994.1
2018-07-18T08:44:04.368Z,994.2
2018-07-18T08:44:24.559Z,994.2
2018-07-18T08:44:44.725Z,994.2
2018-07-18T08:45:04.881Z,994.1
2018-07-18T08:45:25.057Z,994.2
2018-07-18T08:45:45.224Z,994.2
2018-07-18T08:46:05.399Z,994.2
2018-07-18T08:46:25.561Z,994.1
